• Join FlightAware (Why Join?)
  • Login
  • US Flag 
07:38AM EST


 

Airport Tracker/Info


-or-


 

Live Flight TrackerFlight Track Log ✈ XOJ552 ✈ 21-Oct-2013 ✈ KVNY - KTEB

Flight Track Log - Related Links

Times and Time Zones

All times are in EDT time to prevent confusion due to time zone crossing. See the XOJ552 flight status page for this flight to view local times or setup timezone preferences in your user account.

Time Position Orientation Groundspeed Altitude Reporting Facility
EDT Latitude Longitude Course Direction KTS MPH feet Rate Location/Type
10:41AM 34.1833 -118.4833 48° Northeast 181 208 1,600  Level Southern California TRACON
10:43AM 34.2228 -118.4311 48° Northeast 259 298 8,200 2,880 Climbing Los Angeles Center
10:44AM 34.2881 -118.4744 331° Northwest 268 308 11,400 2,940 Climbing Los Angeles Center
10:45AM 34.3631 -118.4297 26° Northeast 310 357 14,300 2,580 Climbing Los Angeles Center
10:46AM 34.4369 -118.3592 38° Northeast 336 387 16,800 2,700 Climbing Los Angeles Center
10:47AM 34.5186 -118.2461 49° Northeast 369 425 19,900 2,520 Climbing Los Angeles Center
10:48AM 34.5839 -118.1422 53° Northeast 384 442 22,000 1,080 Climbing Los Angeles Center
10:49AM 34.6331 -118.0300 62° Northeast 425 489 22,200 900 Climbing Los Angeles Center
10:50AM 34.6553 -117.8922 79° East 423 487 23,900 2,160 Climbing Los Angeles Center
10:51AM 34.7308 -117.7508 57° Northeast 419 482 26,700 2,340 Climbing Los Angeles Center
10:52AM 34.7956 -117.6303 57° Northeast 426 490 28,700 1,980 Climbing Los Angeles Center
10:53AM 34.8614 -117.5081 57° Northeast 436 502 30,800 1,620 Climbing Los Angeles Center
10:54AM 34.9258 -117.3856 57° Northeast 437 503 32,100 1,440 Climbing Los Angeles Center
10:55AM 34.9931 -117.2606 57° Northeast 447 514 33,800 1,800 Climbing Los Angeles Center
10:56AM 35.0719 -117.1119 57° Northeast 438 504 35,800 1,800 Climbing Los Angeles Center
10:57AM 35.1378 -116.9878 57° Northeast 437 503 37,500 1,320 Climbing Los Angeles Center
10:58AM 35.2019 -116.8675 57° Northeast 431 496 38,600 1,020 Climbing Los Angeles Center
10:59AM 35.2631 -116.7464 58° Northeast 425 489 39,600 900 Climbing Los Angeles Center
11:00AM 35.3272 -116.6250 57° Northeast 425 489 40,500 660 Climbing Los Angeles Center
11:02AM 35.3894 -116.5028 58° Northeast 425 489 41,000 240 Climbing Los Angeles Center
11:03AM 35.4678 -116.3544 57° Northeast 432 497 41,000  Level Los Angeles Center
11:04AM 35.5344 -116.2244 58° Northeast 445 512 41,000  Level Los Angeles Center
11:05AM 35.6025 -116.0922 58° Northeast 455 524 41,000  Level Los Angeles Center
11:06AM 35.6706 -115.9603 58° Northeast 458 527 41,000  Level Los Angeles Center
11:07AM 35.7433 -115.8236 57° Northeast 455 524 41,000  Level Los Angeles Center
11:08AM 35.8103 -115.6928 58° Northeast 452 520 41,000  Level Los Angeles Center
11:09AM 35.8783 -115.5592 58° Northeast 460 529 41,000  Level Los Angeles Center
11:10AM 35.9589 -115.3986 58° Northeast 462 532 41,000  Level Los Angeles Center
11:11AM 36.0128 -115.2922 58° Northeast 462 532 41,000  Level Los Angeles Center
11:12AM 36.0994 -115.1358 56° Northeast 463 533 41,000  Level Los Angeles Center
11:13AM 36.1878 -115.0208 46° Northeast 465 535 41,000  Level Los Angeles Center
11:14AM 36.2544 -114.8881 58° Northeast 461 531 41,000  Level Los Angeles Center
11:15AM 36.3214 -114.7517 59° Northeast 463 533 41,000  Level Los Angeles Center
11:16AM 36.3997 -114.5894 59° Northeast 460 529 41,000  Level Los Angeles Center
11:17AM 36.4653 -114.4525 59° Northeast 462 532 41,000  Level Los Angeles Center
11:18AM 36.5314 -114.3164 59° Northeast 461 531 41,000  Level Los Angeles Center
11:19AM 36.5975 -114.1786 59° Northeast 460 529 41,000  Level Los Angeles Center
11:20AM 36.6625 -114.0433 59° Northeast 459 528 41,000  Level Los Angeles Center
11:21AM 36.7267 -113.9050 60° Northeast 462 532 41,000  Level Los Angeles Center
11:22AM 36.8058 -113.7428 59° Northeast 458 527 41,000  Level Los Angeles Center
11:23AM 36.8700 -113.6039 60° Northeast 460 529 41,000  Level Los Angeles Center
11:24AM 36.9361 -113.4658 59° Northeast 463 533 41,000  Level Los Angeles Center
11:25AM 37.0014 -113.3253 60° Northeast 467 537 41,000  Level Los Angeles Center
11:26AM 37.0653 -113.1858 60° Northeast 466 536 41,000  Level Los Angeles Center
11:28AM 37.1428 -113.0161 60° Northeast 470 541 41,000  Level Los Angeles Center
11:29AM 37.2200 -112.8492 60° Northeast 466 536 41,000  Level Los Angeles Center
11:30AM 37.2833 -112.7103 60° Northeast 464 534 41,000  Level Los Angeles Center
11:31AM 37.3469 -112.5706 60° Northeast 466 536 41,000  Level Los Angeles Center
11:32AM 37.4103 -112.4311 60° Northeast 464 534 41,000  Level Los Angeles Center
11:33AM 37.4853 -112.2650 60° Northeast 460 529 41,000  Level Los Angeles Center
11:34AM 37.5464 -112.1278 61° Northeast 457 526 41,000  Level Salt Lake Center
11:35AM 37.6083 -111.9911 60° Northeast 453 521 41,000  Level Salt Lake Center
11:36AM 37.6692 -111.8528 61° Northeast 453 521 41,000  Level Salt Lake Center
11:37AM 37.7314 -111.7150 60° Northeast 454 522 41,000  Level Salt Lake Center
11:38AM 37.7922 -111.5767 61° Northeast 453 521 41,000  Level Salt Lake Center
11:39AM 37.8664 -111.4097 61° Northeast 455 524 41,000  Level Salt Lake Center
11:40AM 37.9150 -111.2972 61° Northeast 455 524 41,000  Level Denver Center
11:41AM 37.9761 -111.1561 61° Northeast 458 527 41,000  Level Denver Center
11:42AM 38.0378 -111.0144 61° Northeast 460 529 41,000  Level Denver Center
11:43AM 38.1058 -110.8564 61° Northeast 460 529 41,000  Level Denver Center
11:44AM 38.1653 -110.7189 61° Northeast 465 535 41,000  Level Denver Center
11:45AM 38.2333 -110.5608 61° Northeast 458 527 41,000  Level Denver Center
11:46AM 38.2917 -110.4244 61° Northeast 458 527 41,000  Level Denver Center
11:47AM 38.3581 -110.2650 62° Northeast 456 525 41,000  Level Denver Center
11:48AM 38.4156 -110.1283 62° Northeast 458 527 41,000  Level Denver Center
11:49AM 38.4739 -109.9908 62° Northeast 460 529 41,000  Level Denver Center
11:50AM 38.5403 -109.8308 62° Northeast 459 528 41,000  Level Denver Center
11:51AM 38.5978 -109.6950 62° Northeast 455 524 41,000  Level Denver Center
11:52AM 38.6633 -109.5319 63° Northeast 461 531 41,000  Level Denver Center
11:53AM 38.7200 -109.3936 62° Northeast 459 528 41,000  Level Denver Center
11:54AM 38.7853 -109.2325 62° Northeast 459 528 41,000  Level Denver Center
11:55AM 38.8428 -109.0964 61° Northeast 455 524 41,000  Level Denver Center
11:56AM 38.9069 -108.9367 63° Northeast 454 522 41,000  Level Denver Center
11:57AM 38.9636 -108.8003 62° Northeast 454 522 41,000  Level Denver Center
11:58AM 39.0281 -108.6392 63° Northeast 455 524 41,000  Level Denver Center
11:59AM 39.0842 -108.5014 62° Northeast 456 525 41,000  Level Denver Center
12:00PM 39.1486 -108.3394 63° Northeast 444 511 41,000 240 Level Denver Center
12:02PM 39.1851 -108.1506 73° East  Level FlightAware Approximate
12:02PM 39.2375 -108.0153 73° East 465 535 41,800  Level Denver Center
12:03PM 39.2728 -107.8622 73° East 467 537 42,400 600 Climbing Denver Center
12:04PM 39.3122 -107.6864 74° East 461 531 43,100 600 Climbing Denver Center
12:06PM 39.3458 -107.5375 74° East 454 522 43,700 540 Climbing Denver Center
12:07PM 39.3853 -107.3661 73° East 447 514 44,300 420 Climbing Denver Center
12:08PM 39.4161 -107.2203 75° East 442 509 44,600 240 Climbing Denver Center
12:09PM 39.4553 -107.0506 73° East 443 510 44,900 180 Climbing Denver Center
12:10PM 39.4833 -106.9056 76° East 437 503 45,000  Climbing Denver Center
12:11PM 39.5239 -106.7317 73° East 449 517 45,000  Level Denver Center
12:12PM 39.5569 -106.5803 74° East 456 525 45,000  Level Denver Center
12:13PM 39.5906 -106.4256 74° East 458 527 45,000  Level Denver Center
12:14PM 39.6250 -106.2656 74° East 460 529 45,000  Level Denver Center
12:15PM 39.6611 -106.0972 74° East 462 532 45,000  Level Denver Center
12:16PM 39.7031 -105.9019 74° East 468 539 45,000  Level Denver Center
12:17PM 39.7378 -105.7372 75° East 474 545 45,000  Level Denver Center
12:18PM 39.7706 -105.5733 75° East 468 539 45,000  Level Denver Center
12:19PM 39.8025 -105.4086 76° East 470 541 45,000  Level Denver Center
12:20PM 39.8369 -105.2425 75° East 472 543 45,000  Level Denver Center
12:21PM 39.8717 -105.0625 76° East 470 541 45,000  Level Denver Center
12:22PM 39.9075 -104.8861 75° East 468 539 45,000  Level Denver Center
12:23PM 39.9414 -104.7156 75° East 463 533 45,000  Level Denver Center
12:24PM 39.9744 -104.5456 76° East 476 548 45,000  Level Denver Center
12:25PM 40.0072 -104.3781 76° East 472 543 45,000  Level Denver Center
12:26PM 40.0378 -104.2153 76° East 466 536 45,000  Level Denver Center
12:27PM 40.0689 -104.0475 76° East 470 541 45,000  Level Denver Center
12:28PM 40.0997 -103.8850 76° East 462 532 45,000  Level Denver Center
12:29PM 40.1297 -103.7206 77° East 459 528 45,000  Level Denver Center
12:30PM 40.1686 -103.5233 75° East 467 537 45,000  Level Denver Center
12:31PM 40.1992 -103.3578 76° East 470 541 45,000  Level Denver Center
12:32PM 40.2303 -103.1911 76° East 472 543 45,000  Level Denver Center
12:33PM 40.2589 -103.0261 77° East 467 537 45,000  Level Denver Center
12:35PM 40.2894 -102.8600 76° East 469 540 45,000  Level Denver Center
12:36PM 40.3233 -102.6653 77° East 470 541 45,000  Level Denver Center
12:37PM 40.3519 -102.5067 77° East 469 540 45,000  Level Denver Center
12:38PM 40.3842 -102.3208 77° East 469 540 45,000  Level Denver Center
12:39PM 40.4131 -102.1603 77° East 472 543 45,000  Level Denver Center
12:40PM 40.4447 -101.9725 77° East 473 544 45,000  Level Denver Center
12:41PM 40.4714 -101.8106 78° East 475 547 45,000  Level Denver Center
12:42PM 40.5036 -101.6206 77° East 478 550 45,000  Level Denver Center
12:43PM 40.5308 -101.4575 78° East 478 550 45,000  Level Denver Center
12:44PM 40.5581 -101.2928 78° East 482 555 45,000  Level Denver Center
12:45PM 40.5892 -101.1022 78° East 481 554 45,000  Level Denver Center
12:46PM 40.6153 -100.9381 78° East 482 555 45,000  Level Denver Center
12:47PM 40.6464 -100.7478 78° East 481 554 45,000  Level Denver Center
12:48PM 40.6767 -100.5581 78° East 484 557 45,000  Level Denver Center
12:49PM 40.7031 -100.3961 78° East 479 551 45,000  Level Denver Center
12:50PM 40.7322 -100.2039 79° East 481 554 45,000  Level Denver Center
12:51PM 40.7578 -100.0392 78° East 481 554 45,000  Level Denver Center
12:52PM 40.7869 -99.8450 79° East 484 557 45,000  Level Denver Center
12:53PM 40.8133 -99.6722 79° East 484 557 45,000  Level Denver Center
12:54PM 40.8397 -99.4969 79° East 486 559 45,000  Level Denver Center
12:55PM 40.8647 -99.3225 79° East 486 559 45,000  Level Denver Center
12:56PM 40.8942 -99.1194 79° East 487 560 45,000  Level Denver Center
12:57PM 40.9156 -98.9653 80° East 488 562 45,000  Level Minneapolis Center
12:58PM 40.9397 -98.7878 80° East 490 564 45,000  Level Minneapolis Center
12:59PM 40.9711 -98.5744 79° East 492 566 45,000  Level Minneapolis Center
01:00PM 40.9928 -98.4150 80° East 490 564 45,000  Level Minneapolis Center
01:01PM 41.0217 -98.2036 80° East 489 563 45,000  Level Minneapolis Center
01:02PM 41.0453 -98.0253 80° East 492 566 45,000  Level Minneapolis Center
01:03PM 41.0692 -97.8453 80° East 495 570 45,000  Level Minneapolis Center
01:05PM 41.0928 -97.6664 80° East 495 570 45,000  Level Minneapolis Center
01:06PM 41.1161 -97.4872 80° East 494 568 45,000  Level Minneapolis Center
01:07PM 41.1408 -97.2881 81° East 495 570 45,000  Level Minneapolis Center
01:08PM 41.1642 -97.1081 80° East 496 571 45,000  Level Minneapolis Center
01:09PM 41.1864 -96.9283 81° East 494 568 45,000  Level Minneapolis Center
01:10PM 41.2100 -96.7497 80° East 493 567 45,000  Level Minneapolis Center
01:11PM 41.2356 -96.5289 81° East 501 577 45,000  Level Minneapolis Center
01:12PM 41.2583 -96.3483 80° East 500 575 45,000  Level Minneapolis Center
01:13PM 41.2767 -96.1839 82° East 499 574 45,000  Level Minneapolis Center
01:14PM 41.3022 -95.9647 81° East 500 575 45,000  Level Minneapolis Center
01:15PM 41.3231 -95.7817 81° East 500 575 45,000  Level Minneapolis Center
01:16PM 41.3436 -95.5972 81° East 499 574 45,000  Level Minneapolis Center
01:17PM 41.3633 -95.4133 82° East 500 575 45,000  Level Minneapolis Center
01:18PM 41.3836 -95.2289 82° East 503 579 45,000  Level Minneapolis Center
01:19PM 41.4056 -95.0447 81° East 504 580 45,000  Level Minneapolis Center
01:20PM 41.4289 -94.8219 82° East 506 582 45,000  Level Minneapolis Center
01:21PM 41.4472 -94.6356 82° East 507 583 45,000  Level Minneapolis Center
01:22PM 41.4658 -94.4486 82° East 508 585 45,000  Level Minneapolis Center
01:23PM 41.4856 -94.2617 82° East 509 586 45,000  Level Minneapolis Center
01:24PM 41.5014 -94.0822 83° East 506 582 45,000  Level Minneapolis Center
01:25PM 41.5200 -93.8942 82° East 510 587 45,000  Level Minneapolis Center
01:26PM 41.5425 -93.6675 82° East 515 593 45,000  Level Minneapolis Center
01:27PM 41.5608 -93.4778 83° East 517 595 45,000  Level Minneapolis Center
01:28PM 41.5794 -93.2872 82° East 520 598 45,000  Level Minneapolis Center
01:29PM 41.5956 -93.0986 83° East 516 594 45,000  Level Minneapolis Center
01:30PM 41.6119 -92.9092 83° East 514 592 45,000  Level Minneapolis Center
01:31PM 41.6319 -92.6797 83° East 518 596 45,000  Level Minneapolis Center
01:32PM 41.6456 -92.5236 83° East 519 597 45,000  Level Chicago Center
01:33PM 41.6647 -92.2972 83° East 516 594 45,000  Level Chicago Center
01:34PM 41.6811 -92.1086 83° East 518 596 45,000  Level Chicago Center
01:36PM 41.6947 -91.9183 84° East 518 596 45,000  Level Chicago Center
01:37PM 41.7100 -91.7292 84° East 519 597 45,000  Level Chicago Center
01:38PM 41.7244 -91.5400 84° East 516 594 45,000  Level Chicago Center
01:39PM 41.7417 -91.3111 84° East 521 600 45,000  Level Chicago Center
01:40PM 41.7550 -91.1214 85° East 520 598 45,000  Level Chicago Center
01:41PM 41.7686 -90.9286 85° East 525 604 45,000  Level Chicago Center
01:42PM 41.7822 -90.7383 84° East 522 601 45,000  Level Chicago Center
01:43PM 41.7975 -90.5078 85° East 524 603 45,000  Level Chicago Center
01:44PM 41.8083 -90.3175 86° East 520 598 45,000  Level Chicago Center
01:45PM 41.8231 -90.1219 84° East 526 605 45,000  Level Chicago Center
01:46PM 41.8356 -89.9286 85° East 528 608 45,000  Level Chicago Center
01:47PM 41.8461 -89.7386 86° East 517 595 45,000  Level Chicago Center
01:48PM 41.8606 -89.5028 85° East 528 608 45,000  Level Chicago Center
01:49PM 41.8717 -89.3058 86° East 530 610 45,000  Level Chicago Center
01:50PM 41.8811 -89.1111 86° East 526 605 45,000  Level Chicago Center
01:51PM 41.8919 -88.9133 86° East 532 612 45,000  Level Chicago Center
01:52PM 41.9025 -88.7169 86° East 529 609 45,000  Level Chicago Center
01:53PM 41.9128 -88.5183 86° East 533 613 45,000  Level Chicago Center
01:54PM 41.9236 -88.2811 86° East 532 612 45,000  Level Chicago Center
01:55PM 41.9325 -88.0817 87° East 531 611 45,000  Level Chicago Center
01:56PM 41.9408 -87.8811 87° East 535 616 45,000  Level Chicago Center
01:57PM 41.9500 -87.6811 86° East 535 616 45,000  Level Chicago Center
01:58PM 41.9583 -87.4831 87° East 533 613 45,000  Level Chicago Center
01:59PM 41.9644 -87.2817 88° East 538 619 45,000  Level Chicago Center
02:00PM 41.9747 -87.0431 87° East 536 617 45,000  Level Chicago Center
02:01PM 41.9814 -86.8436 87° East 536 617 45,000  Level Chicago Center
02:02PM 41.9869 -86.6628 88° East 535 616 45,000  Level Chicago Center
02:03PM 41.9939 -86.4636 87° East 536 617 45,000  Level Chicago Center
02:04PM 42.0000 -86.2236 88° East 536 617 45,000  Level Chicago Center
02:06PM 42.0058 -86.0244 88° East 534 615 45,000  Level Chicago Center
02:07PM 42.0111 -85.8231 88° East 536 617 45,000  Level Chicago Center
02:08PM 42.0158 -85.6250 88° East 539 620 45,000  Level Chicago Center
02:09PM 42.0211 -85.4258 88° East 538 619 45,000  Level Chicago Center
02:10PM 42.0256 -85.2236 88° East 544 626 45,000  Level Chicago Center
02:11PM 42.0308 -84.9814 88° East 544 626 45,000  Level Chicago Center
02:12PM 42.0342 -84.7806 89° East 541 623 45,000  Level Chicago Center
02:13PM 42.0375 -84.5789 89° East 543 625 45,000  Level Chicago Center
02:14PM 42.0397 -84.3603 89° East 540 621 45,000  Level Cleveland Center
02:15PM 42.0406 -84.1400 90° East 537 618 45,000  Level Cleveland Center
02:16PM 42.0397 -83.9408 90° East 537 618 45,000  Level Cleveland Center
02:17PM 42.0392 -83.7431 90° East 536 617 45,000  Level Cleveland Center
02:18PM 42.0378 -83.5344 90° East 534 615 45,000  Level Cleveland Center
02:19PM 42.0361 -83.3333 91° East 533 613 45,000  Level Cleveland Center
02:20PM 42.0347 -83.1150 90° East 534 615 45,000  Level Cleveland Center
02:21PM 42.0322 -82.9172 91° East 534 615 45,000  Level Cleveland Center
02:22PM 42.0294 -82.7192 91° East 533 613 45,000  Level Cleveland Center
02:23PM 42.0275 -82.5206 91° East 534 615 45,000  Level Cleveland Center
02:24PM 42.0233 -82.2800 91° East 539 620 45,000  Level Cleveland Center
02:25PM 42.0197 -82.0856 91° East 537 618 45,000  Level Cleveland Center
02:26PM 42.0153 -81.8817 92° East 540 621 45,000  Level Cleveland Center
02:27PM 42.0111 -81.6753 91° East 544 626 45,000  Level Cleveland Center
02:28PM 42.0067 -81.4711 92° East 542 624 45,000  Level Cleveland Center
02:29PM 42.0014 -81.2650 92° East 544 626 45,000  Level Cleveland Center
02:30PM 41.9950 -81.0250 92° East 543 625 45,000  Level Cleveland Center
02:31PM 41.9822 -80.8197 95° East 545 627 45,000  Level Cleveland Center
02:32PM 41.9683 -80.6150 95° East 545 627 45,000  Level Cleveland Center
02:33PM 41.9544 -80.4114 95° East 544 626 45,000  Level Cleveland Center
02:35PM 41.9406 -80.2097 95° East 539 620 45,000  Level Cleveland Center
02:36PM 41.9253 -80.0053 96° East 544 626 45,000  Level Cleveland Center
02:37PM 41.9097 -79.8022 96° East 543 625 45,000  Level Cleveland Center
02:38PM 41.8950 -79.5992 95° East 539 620 45,000  Level Cleveland Center
02:39PM 41.8767 -79.3617 96° East 537 618 45,000  Level Cleveland Center
02:40PM 41.8600 -79.1661 96° East 542 624 45,000 -60 Level Cleveland Center
02:41PM 41.8439 -78.9667 96° East 541 623 44,900 -780 Descending Cleveland Center
02:42PM 41.8267 -78.7639 96° East 534 615 43,500 -1,440 Descending Cleveland Center
02:43PM 41.8100 -78.5614 96° East 544 626 41,900 -1,680 Descending Cleveland Center
02:44PM 41.7925 -78.3572 96° East 550 633 40,000 -2,280 Descending Cleveland Center
02:45PM 41.7706 -78.1136 97° East 550 633 37,300 -2,460 Descending Cleveland Center
02:46PM 41.7525 -77.9125 97° East 547 629 35,000 -1,380 Descending Cleveland Center
02:47PM 41.7428 -77.7961 96° East 544 626 35,000  Level New York Center
02:48PM 41.7211 -77.5964 98° East 544 626 35,000  Level New York Center
02:49PM 41.7014 -77.3917 97° East 549 632 35,000 -660 Level New York Center
02:50PM 41.6811 -77.1922 98° East 544 626 33,700 -1,560 Descending New York Center
02:51PM 41.6392 -77.0022 106° East 539 620 31,900 -1,920 Descending New York Center
02:52PM 41.5881 -76.8200 111° Southeast 533 613 29,900 -2,100 Descending New York Center
02:53PM 41.5386 -76.6436 110° East 521 600 27,700 -2,100 Descending New York Center
02:54PM 41.4872 -76.4592 110° East 521 600 25,700 -2,040 Descending New York Center
02:55PM 41.4397 -76.2725 109° East 514 592 23,700 -1,860 Descending New York Center
02:56PM 41.3911 -76.1081 111° Southeast 501 577 22,000 -1,800 Descending New York Center
02:57PM 41.3481 -75.9500 110° East 468 539 20,200 -1,680 Descending New York Center
02:58PM 41.3025 -75.8000 112° Southeast 454 522 18,700 -1,320 Descending New York Center
02:59PM 41.2606 -75.6561 111° Southeast 433 498 17,600 -1,800 Descending New York Center
03:00PM 41.2161 -75.5206 114° Southeast 400 460 15,200 -2,280 Descending New York Center
03:01PM 41.1733 -75.3936 114° Southeast 382 440 13,100 -1,980 Descending New York Center
03:02PM 41.1378 -75.2892 114° Southeast 358 412 11,300 -1,800 Descending New York Center
03:03PM 41.1022 -75.1794 113° Southeast 336 387 9,500 -1,860 Descending New York Center
03:04PM 41.0647 -75.0697 114° Southeast 309 356 7,600 -1,680 Descending New York Center
03:05PM 41.0389 -74.9772 110° East 284 327 6,200 -840 Descending New York Center
03:06PM 41.0358 -74.8808 92° East 268 308 6,000 -840 Descending New York Center
03:07PM 41.0356 -74.7733 90° East 268 308 4,600 -1,020 Descending New York Center
03:08PM 41.0342 -74.6825 91° East 273 314 4,000 -300 Descending New York Center
03:09PM 41.0336 -74.5753 90° East 268 308 4,000 -60 Level New York Center
03:10PM 41.0319 -74.4981 92° East 251 289 3,900 -540 Descending New York Center
03:11PM 41.0303 -74.4156 92° East 215 247 3,000 -600 Descending New York Center
03:11PM 41.0333 -74.3667 85° East 196 226 3,000  Level New York TRACON
03:12PM 41.0333 -74.3000 90° East 193 222 3,000  Level New York TRACON
03:13PM 41.0333 -74.2333 90° East 197 227 3,000 -240 Level New York TRACON
03:14PM 41.0333 -74.1667 90° East 191 220 2,600 -540 Descending New York TRACON
03:15PM 41.0167 -74.1000 108° East 198 228 2,000 -300 Descending New York TRACON
03:16PM 40.9833 -74.0500 131° Southeast 186 214 2,000 -240 Level New York TRACON
03:17PM 40.9333 -74.0500 180° South 152 175 1,600 -600 Descending New York TRACON
03:18PM 40.9000 -74.0500 180° South 127 146 900 -720 Descending New York TRACON
03:20PM 40.8500 -74.0500 167° South  Level FlightAware Approximate
03:27PM 40.8501 -74.0608 167° South  Level Estimated
03:28PM 40.8501 -74.0608 167° South  Level Estimated